Decoded Metar for KVDF (TAMPA/VANDENBURG in FL, USA) (IATA:VDF) | Meteo·Mobile Aviation Weather
aviador You're here:

KVDF Decoded Metar

TAMPA/VANDENBURG in FL, USA
Report Time2019-05-22 18:35:00
UTC Time2019-05-22 18:55:59
Flight Rules vfr VFR
Wind080° at 04 kt
W.Decomp.*RWY 05: 3.3 kt HW 2.2 kt RCW
RWY 36: 0.4 kt HW 4.0 kt RCW
Visibility9999 m
Phenomena:N/A
Clouds:Scattered 060 Hf
Expected CloudBase > 6,000 ft AGL from Temp-Dew spread
CeilingNone
Temp34°C (ISA +19)
Dew Point19°C (41% RH)
Heat Index35.7°C
QNH1018 hPa
Density Alt2,313 ft
Elevation23 ft
Report Wrong Elevation
Raw Report
METAR KVDF 221835Z AUTO 08004KT 10SM SCT060 34/19 A3006 RMK AO2=

Extra information for KVDF:More info

Metar Taf Metar & Taf Last 4 Metars F.Rules Stats Wind Profile Meteogram Temp Stats Airport Information Weather charts Add Link Nearby VenuesMetar ALERT Operation Metar Decoded Social comments

AIRNAV info for KVDF